createdAt,value
2023-04-07T00:02:20.615Z,99193.73
2023-04-07T00:04:47.472Z,99195.16
2023-04-07T00:07:14.065Z,99196.23
2023-04-07T00:09:40.797Z,99193.83
2023-04-07T00:12:07.557Z,99193.29
2023-04-07T00:14:34.515Z,99196.27
2023-04-07T00:17:01.263Z,99194.39
2023-04-07T00:19:28.851Z,99192.35
2023-04-07T00:21:55.532Z,99194.55
2023-04-07T00:24:33.864Z,99197.23
2023-04-07T00:27:02.294Z,99201.16
2023-04-07T00:29:29.178Z,99198.15
2023-04-07T00:31:55.801Z,99197.71
2023-04-07T00:34:22.759Z,99200.48
2023-04-07T00:36:51.719Z,99202.30
2023-04-07T00:39:18.908Z,99208.89
2023-04-07T00:41:47.091Z,99211.98
2023-04-07T00:44:14.008Z,99213.52
2023-04-07T00:46:40.794Z,99213.74
2023-04-07T00:49:10.703Z,99217.88
2023-04-07T00:51:38.343Z,99218.56
2023-04-07T00:54:05.952Z,99218.65
2023-04-07T00:56:32.687Z,99218.92
2023-04-07T00:58:59.307Z,99222.11
2023-04-07T01:01:40.650Z,99223.75
2023-04-07T01:04:24.630Z,99229.16
2023-04-07T01:06:51.671Z,99229.63
2023-04-07T01:09:27.337Z,99230.02
2023-04-07T01:12:35.698Z,99231.54
2023-04-07T01:15:11.039Z,99240.34
2023-04-07T01:17:45.992Z,99241.89
2023-04-07T01:20:14.072Z,99247.42
2023-04-07T01:22:54.326Z,99247.94
2023-04-07T01:25:35.589Z,99250.76
2023-04-07T01:28:19.933Z,99249.34
2023-04-07T01:30:46.931Z,99251.95
2023-04-07T01:33:14.270Z,99255.17
2023-04-07T01:35:41.494Z,99254.05
2023-04-07T01:38:08.891Z,99254.52
2023-04-07T01:40:35.715Z,99255.91
2023-04-07T01:43:21.751Z,99254.35
2023-04-07T01:45:49.963Z,99259.34
2023-04-07T01:48:16.747Z,99259.16
2023-04-07T01:50:43.891Z,99263.61
2023-04-07T01:53:10.510Z,99260.20
2023-04-07T01:55:37.341Z,99258.88
2023-04-07T01:58:08.439Z,99265.86
2023-04-07T02:00:37.981Z,99263.63
2023-04-07T02:03:20.261Z,99265.23
2023-04-07T02:05:48.089Z,99267.81
2023-04-07T02:08:17.736Z,99268.81
2023-04-07T02:10:47.444Z,99274.95
2023-04-07T02:13:18.145Z,99279.44
2023-04-07T02:15:45.244Z,99282.10
2023-04-07T02:18:12.865Z,99280.64
2023-04-07T02:20:39.884Z,99278.80
2023-04-07T02:23:09.783Z,99278.04
2023-04-07T02:25:39.665Z,99277.31
2023-04-07T02:28:06.634Z,99280.44
2023-04-07T02:30:34.282Z,99276.93
2023-04-07T02:33:01.511Z,99276.27
2023-04-07T02:35:28.379Z,99278.27
2023-04-07T02:37:55.064Z,99281.23
2023-04-07T02:40:22.121Z,99286.21
2023-04-07T02:42:48.996Z,99283.32
2023-04-07T02:45:15.873Z,99285.16
2023-04-07T02:47:42.552Z,99286.51
2023-04-07T02:50:09.730Z,99292.42
2023-04-07T02:52:36.436Z,99295.02
2023-04-07T02:55:08.125Z,99298.20
2023-04-07T02:57:35.162Z,99296.61
2023-04-07T03:00:04.065Z,99306.66
2023-04-07T03:02:46.477Z,99307.67
2023-04-07T03:05:13.543Z,99306.33
2023-04-07T03:07:40.854Z,99313.62
2023-04-07T03:10:08.959Z,99313.84
2023-04-07T03:12:36.186Z,99315.30
2023-04-07T03:15:03.118Z,99318.98
2023-04-07T03:17:33.070Z,99324.02
2023-04-07T03:20:00.527Z,99326.89
2023-04-07T03:22:27.277Z,99328.32
2023-04-07T03:24:55.139Z,99331.37
2023-04-07T03:27:23.532Z,99331.81
2023-04-07T03:29:50.818Z,99337.76
2023-04-07T03:32:17.873Z,99340.05
2023-04-07T03:34:44.726Z,99345.67
2023-04-07T03:37:12.629Z,99346.61
2023-04-07T03:39:40.480Z,99349.84
2023-04-07T03:42:21.490Z,99347.98
2023-04-07T03:44:48.877Z,99352.40
2023-04-07T03:47:15.559Z,99358.89
2023-04-07T03:49:42.249Z,99357.72
2023-04-07T03:52:09.348Z,99361.48
2023-04-07T03:54:36.682Z,99364.42
2023-04-07T03:57:03.468Z,99367.66
2023-04-07T03:59:32.325Z,99376.09
2023-04-07T04:02:02.268Z,99375.08
2023-04-07T04:04:29.351Z,99378.67
2023-04-07T04:06:57.062Z,99378.79
2023-04-07T04:09:34.544Z,99380.38
2023-04-07T04:12:01.302Z,99388.70
2023-04-07T04:14:29.720Z,99389.46
2023-04-07T04:17:00.009Z,99394.05
2023-04-07T04:19:37.535Z,99394.40
2023-04-07T04:22:11.717Z,99397.27
2023-04-07T04:24:44.136Z,99400.83
2023-04-07T04:27:10.980Z,99404.05
2023-04-07T04:29:38.145Z,99401.17
2023-04-07T04:32:05.937Z,99404.95
2023-04-07T04:34:36.514Z,99410.89
2023-04-07T04:37:04.143Z,99416.02
2023-04-07T04:39:31.251Z,99417.08
2023-04-07T04:42:01.620Z,99416.42
2023-04-07T04:44:33.137Z,99424.30
2023-04-07T04:47:04.257Z,99424.88
2023-04-07T04:49:32.510Z,99428.98
2023-04-07T04:52:02.668Z,99431.95
2023-04-07T04:54:32.488Z,99434.94
2023-04-07T04:57:01.010Z,99436.73
2023-04-07T04:59:29.614Z,99439.59
2023-04-07T05:02:00.581Z,99442.38
2023-04-07T05:04:27.866Z,99442.70
2023-04-07T05:07:00.600Z,99441.13
2023-04-07T05:09:29.207Z,99442.94
2023-04-07T05:11:57.296Z,99445.95
2023-04-07T05:14:25.135Z,99451.77
2023-04-07T06:04:31.296Z,99501.79
2023-04-07T06:07:25.689Z,99502.93
2023-04-07T06:09:52.554Z,99506.99
2023-04-07T06:12:19.465Z,99509.83
2023-04-07T06:14:50.592Z,99509.93
2023-04-07T06:17:17.230Z,99507.83
2023-04-07T06:19:47.067Z,99511.83
2023-04-07T06:22:14.222Z,99513.40
2023-04-07T06:24:45.121Z,99519.31
2023-04-07T06:27:12.243Z,99521.30
2023-04-07T06:29:40.545Z,99519.92
2023-04-07T06:32:07.711Z,99524.88
2023-04-07T06:34:35.821Z,99528.85
2023-04-07T06:37:03.301Z,99531.55
2023-04-07T06:39:30.564Z,99535.36
2023-04-07T06:41:57.528Z,99535.91
2023-04-07T06:44:24.288Z,99535.08
2023-04-07T06:46:52.865Z,99531.13
2023-04-07T06:49:23.189Z,99536.20
2023-04-07T06:51:50.101Z,99538.50
2023-04-07T06:54:16.933Z,99538.73
2023-04-07T06:56:59.325Z,99543.70
2023-04-07T06:59:25.963Z,99545.85
2023-04-07T07:01:52.850Z,99548.20
2023-04-07T07:04:20.806Z,99543.50
2023-04-07T07:06:48.285Z,99547.82
2023-04-07T07:09:15.598Z,99549.92
2023-04-07T07:11:45.504Z,99547.27
2023-04-07T07:14:15.326Z,99544.58
2023-04-07T07:16:42.325Z,99544.16
2023-04-07T07:19:17.049Z,99544.94
2023-04-07T07:21:43.895Z,99545.48
2023-04-07T07:24:12.540Z,99546.30
2023-04-07T07:26:42.273Z,99548.18
2023-04-07T07:29:10.345Z,99552.01
2023-04-07T07:31:42.430Z,99549.60
2023-04-07T07:34:09.359Z,99545.92
2023-04-07T07:36:38.797Z,99550.25
2023-04-07T07:39:06.111Z,99551.76
2023-04-07T07:41:32.948Z,99555.27
2023-04-07T07:43:59.692Z,99555.00
2023-04-07T07:46:26.946Z,99559.42
2023-04-07T07:48:58.291Z,99556.54
2023-04-07T07:51:27.587Z,99554.59
2023-04-07T07:53:54.204Z,99559.54
2023-04-07T07:56:21.925Z,99556.13
2023-04-07T07:58:50.466Z,99557.27
2023-04-07T08:01:17.269Z,99556.62
2023-04-07T08:03:45.942Z,99561.34
2023-04-07T08:06:13.403Z,99562.91
2023-04-07T08:08:41.652Z,99560.90
2023-04-07T08:17:31.747Z,99563.73
2023-04-07T08:20:04.736Z,99563.23
2023-04-07T08:22:32.500Z,99560.27
2023-04-07T08:24:59.353Z,99561.44
2023-04-07T08:27:30.718Z,99563.04
2023-04-07T08:29:59.924Z,99564.10
2023-04-07T08:32:40.697Z,99563.05
2023-04-07T08:35:07.777Z,99562.19
2023-04-07T08:37:35.909Z,99563.55
2023-04-07T08:40:03.203Z,99570.55
2023-04-07T08:42:32.670Z,99564.94
2023-04-07T08:45:04.554Z,99568.45
2023-04-07T08:47:32.944Z,99570.05
2023-04-07T08:50:03.170Z,99568.51
2023-04-07T08:52:52.540Z,99569.88
2023-04-07T08:55:22.163Z,99567.68
2023-04-07T08:57:50.630Z,99572.38
2023-04-07T09:00:17.502Z,99568.38
2023-04-07T09:02:47.332Z,99570.42
2023-04-07T09:05:14.119Z,99573.21
2023-04-07T09:07:42.594Z,99571.13
2023-04-07T09:10:13.476Z,99574.70
2023-04-07T09:12:49.555Z,99577.66
2023-04-07T09:19:52.301Z,99573.75
2023-04-07T09:22:39.383Z,99576.08
2023-04-07T09:25:15.335Z,99579.50
2023-04-07T09:27:56.615Z,99578.10
2023-04-07T09:30:23.509Z,99576.55
2023-04-07T09:37:26.001Z,99579.68
2023-04-07T09:39:55.780Z,99577.96
2023-04-07T09:42:22.662Z,99576.63
2023-04-07T09:44:49.477Z,99576.77
2023-04-07T09:47:17.616Z,99577.74
2023-04-07T09:49:49.293Z,99577.67
2023-04-07T09:52:17.011Z,99578.40
2023-04-07T09:54:44.607Z,99574.51
2023-04-07T09:57:13.054Z,99571.95
2023-04-07T09:59:41.972Z,99575.73
2023-04-07T10:02:09.158Z,99577.52
2023-04-07T10:04:36.850Z,99576.67
2023-04-07T10:12:00.138Z,99577.43
2023-04-07T10:14:29.537Z,99580.52
2023-04-07T10:17:02.146Z,99577.49
2023-04-07T10:19:33.104Z,99580.27
2023-04-07T10:22:00.104Z,99581.46
2023-04-07T10:24:37.314Z,99582.99
2023-04-07T10:27:07.200Z,99584.14
2023-04-07T10:29:41.985Z,99585.81
2023-04-07T10:32:09.373Z,99582.43
2023-04-07T10:34:55.902Z,99587.98
2023-04-07T10:37:23.688Z,99586.70
2023-04-07T10:40:19.028Z,99592.06
2023-04-07T10:47:19.928Z,99593.67
2023-04-07T10:54:22.659Z,99591.63
2023-04-07T10:57:01.998Z,99593.56
2023-04-07T10:59:29.859Z,99593.23
2023-04-07T11:02:22.807Z,99591.27
2023-04-07T11:04:50.001Z,99595.52
2023-04-07T11:07:20.594Z,99596.72
2023-04-07T11:09:47.454Z,99597.22
2023-04-07T11:12:23.928Z,99593.12
2023-04-07T11:14:50.835Z,99591.34
2023-04-07T11:17:23.698Z,99592.02
2023-04-07T11:19:53.850Z,99592.30
2023-04-07T11:24:50.789Z,99590.20
2023-04-07T11:27:18.186Z,99589.12
2023-04-07T11:29:45.116Z,99585.21
2023-04-07T11:32:12.555Z,99588.63
2023-04-07T11:34:39.899Z,99588.23
2023-04-07T11:37:23.831Z,99585.75
2023-04-07T11:39:58.107Z,99586.13
2023-04-07T11:42:40.626Z,99586.54
2023-04-07T11:45:17.552Z,99584.19
2023-04-07T11:47:44.562Z,99579.60
2023-04-07T11:50:14.432Z,99579.70
2023-04-07T11:52:47.425Z,99580.73
2023-04-07T11:55:22.302Z,99583.23
2023-04-07T11:57:53.060Z,99584.89
2023-04-07T12:00:20.484Z,99579.11
2023-04-07T12:02:48.149Z,99579.64
2023-04-07T12:05:15.011Z,99577.45
2023-04-07T12:07:52.437Z,99576.46
2023-04-07T12:10:23.441Z,99578.46
2023-04-07T12:12:55.946Z,99579.63
2023-04-07T12:15:23.601Z,99573.68
2023-04-07T12:17:50.872Z,99575.27
2023-04-07T12:20:26.724Z,99577.14
2023-04-07T12:22:53.746Z,99580.17
2023-04-07T12:25:21.002Z,99576.36
2023-04-07T12:27:51.215Z,99573.84
2023-04-07T12:30:18.295Z,99577.06
2023-04-07T12:32:45.140Z,99576.13
2023-04-07T12:35:11.803Z,99572.80
2023-04-07T12:37:38.505Z,99569.68
2023-04-07T12:44:41.853Z,99572.58
2023-04-07T12:47:08.781Z,99569.61
2023-04-07T12:49:35.809Z,99570.02
2023-04-07T12:52:03.040Z,99567.63
2023-04-07T12:54:30.673Z,99573.03
2023-04-07T12:56:57.986Z,99570.52
2023-04-07T12:59:25.480Z,99573.98
2023-04-07T13:01:52.912Z,99573.84
2023-04-07T13:04:19.975Z,99572.56
2023-04-07T13:06:47.796Z,99578.36
2023-04-07T13:09:14.784Z,99577.45
2023-04-07T13:11:41.504Z,99580.06
2023-04-07T13:14:08.308Z,99579.73
2023-04-07T13:16:35.092Z,99575.52
2023-04-07T13:19:01.889Z,99576.64
2023-04-07T13:21:45.251Z,99577.55
2023-04-07T13:24:12.679Z,99578.20
2023-04-07T13:26:40.404Z,99578.19
2023-04-07T13:29:07.166Z,99577.48
2023-04-07T13:31:33.998Z,99572.98
2023-04-07T13:38:33.991Z,99573.31
2023-04-07T13:41:00.802Z,99575.91
2023-04-07T13:48:11.220Z,99576.35
2023-04-07T13:50:38.607Z,99578.89
2023-04-07T13:53:06.121Z,99576.90
2023-04-07T13:55:33.588Z,99573.92
2023-04-07T13:58:00.700Z,99577.84
2023-04-07T14:00:29.633Z,99580.27
2023-04-07T14:03:08.101Z,99575.39
2023-04-07T14:05:35.464Z,99580.45
2023-04-07T14:08:02.439Z,99576.36
2023-04-07T14:10:29.909Z,99575.00
2023-04-07T14:12:56.972Z,99575.56
2023-04-07T14:15:24.065Z,99579.27
2023-04-07T14:17:51.162Z,99577.64
2023-04-07T14:20:18.114Z,99576.89
2023-04-07T14:22:45.325Z,99575.82
2023-04-07T14:25:12.254Z,99579.06
2023-04-07T14:27:40.538Z,99579.88
2023-04-07T14:30:08.264Z,99577.81
2023-04-07T14:32:36.019Z,99578.27
2023-04-07T14:35:02.807Z,99583.06
2023-04-07T14:37:30.197Z,99582.45
2023-04-07T14:42:29.224Z,99585.42
2023-04-07T14:49:45.353Z,99578.67
2023-04-07T14:52:25.364Z,99579.17
2023-04-07T14:54:54.637Z,99582.05
2023-04-07T14:57:23.933Z,99583.33
2023-04-07T14:59:53.646Z,99582.95
2023-04-07T15:02:23.967Z,99582.10
2023-04-07T15:04:54.069Z,99581.83
2023-04-07T15:07:24.974Z,99577.83
2023-04-07T15:09:54.968Z,99580.88
2023-04-07T15:12:24.346Z,99582.58
2023-04-07T15:14:55.018Z,99580.55
2023-04-07T15:17:36.648Z,99581.96
2023-04-07T15:20:13.469Z,99584.15
2023-04-07T15:22:44.804Z,99583.06
2023-04-07T15:25:15.155Z,99585.13
2023-04-07T15:27:44.634Z,99581.39
2023-04-07T15:30:15.012Z,99585.96
2023-04-07T15:32:57.501Z,99585.02
2023-04-07T15:35:27.997Z,99580.58
2023-04-07T15:37:58.006Z,99581.61
2023-04-07T15:40:28.136Z,99582.54
2023-04-07T15:42:57.317Z,99581.97
2023-04-07T15:45:27.019Z,99585.80
2023-04-07T15:47:58.124Z,99586.89
2023-04-07T15:50:29.554Z,99589.36
2023-04-07T16:00:56.767Z,99589.92
2023-04-07T16:03:27.348Z,99590.00
2023-04-07T16:05:55.413Z,99593.80
2023-04-07T16:08:22.146Z,99593.86
2023-04-07T16:10:51.132Z,99591.40
2023-04-07T16:13:18.025Z,99590.77
2023-04-07T16:15:45.132Z,99593.23
2023-04-07T16:18:11.914Z,99591.56
2023-04-07T16:20:40.034Z,99592.92
2023-04-07T16:23:10.171Z,99591.74
2023-04-07T16:25:36.837Z,99594.61
2023-04-07T16:28:03.514Z,99596.08
2023-04-07T16:30:32.077Z,99597.15
2023-04-07T16:33:16.345Z,99603.34
2023-04-07T16:35:43.080Z,99605.58
2023-04-07T16:38:09.843Z,99608.89
2023-04-07T16:40:37.823Z,99615.38
2023-04-07T16:43:05.013Z,99615.23
2023-04-07T16:45:31.973Z,99615.50
2023-04-07T16:47:59.173Z,99618.11
2023-04-07T16:50:25.961Z,99617.48
2023-04-07T16:52:54.279Z,99620.55
2023-04-07T16:55:21.327Z,99625.25
2023-04-07T16:57:48.889Z,99633.89
2023-04-07T17:00:15.908Z,99638.80
2023-04-07T17:02:44.364Z,99648.79
2023-04-07T17:05:11.563Z,99657.17
2023-04-07T17:07:38.591Z,99664.03
2023-04-07T17:10:06.566Z,99666.77
2023-04-07T17:12:35.178Z,99672.65
2023-04-07T17:15:10.487Z,99672.99
2023-04-07T17:17:38.994Z,99677.89
2023-04-07T17:20:07.356Z,99672.77
2023-04-07T17:22:34.289Z,99674.55
2023-04-07T17:25:01.470Z,99680.38
2023-04-07T17:27:28.496Z,99688.73
2023-04-07T17:29:57.727Z,99692.58
2023-04-07T17:32:25.698Z,99696.27
2023-04-07T17:34:52.890Z,99700.59
2023-04-07T17:37:25.827Z,99699.09
2023-04-07T17:39:52.745Z,99704.69
2023-04-07T17:42:19.671Z,99706.49
2023-04-07T17:44:50.935Z,99713.33
2023-04-07T17:47:17.929Z,99718.48
2023-04-07T17:49:51.413Z,99718.42
2023-04-07T17:52:18.109Z,99723.87
2023-04-07T17:54:44.881Z,99731.21
2023-04-07T17:57:13.640Z,99730.38
2023-04-07T17:59:41.064Z,99734.91
2023-04-07T18:02:09.903Z,99735.35
2023-04-07T18:04:37.423Z,99740.72
2023-04-07T18:07:04.408Z,99740.14
2023-04-07T18:09:32.366Z,99743.13
2023-04-07T18:12:02.034Z,99744.14
2023-04-07T18:14:29.620Z,99740.15
2023-04-07T18:16:56.463Z,99738.02
2023-04-07T18:19:23.817Z,99736.80
2023-04-07T18:21:53.012Z,99737.85
2023-04-07T18:24:21.061Z,99732.65
2023-04-07T18:26:48.068Z,99733.52
2023-04-07T18:29:14.988Z,99734.98
2023-04-07T18:31:42.239Z,99734.67
2023-04-07T18:34:09.921Z,99737.82
2023-04-07T18:36:42.574Z,99741.50
2023-04-07T18:39:09.919Z,99739.85
2023-04-07T18:41:36.999Z,99742.45
2023-04-07T18:44:04.168Z,99738.81
2023-04-07T18:46:31.146Z,99735.04
2023-04-07T18:48:59.133Z,99734.67
2023-04-07T18:51:27.243Z,99734.61
2023-04-07T18:53:54.466Z,99733.73
2023-04-07T18:56:21.655Z,99730.32
2023-04-07T18:58:49.058Z,99735.00
2023-04-07T19:01:16.690Z,99738.19
2023-04-07T19:03:43.879Z,99738.83
2023-04-07T19:06:14.504Z,99739.14
2023-04-07T19:08:46.542Z,99741.51
2023-04-07T19:11:13.511Z,99742.23
2023-04-07T19:13:40.550Z,99740.16
2023-04-07T19:16:07.718Z,99739.86
2023-04-07T19:18:34.861Z,99738.81
2023-04-07T19:21:02.538Z,99740.23
2023-04-07T19:23:30.175Z,99738.41
2023-04-07T19:25:57.047Z,99739.90
2023-04-07T19:28:27.567Z,99743.29
2023-04-07T19:30:55.480Z,99742.67
2023-04-07T19:33:23.006Z,99738.42
2023-04-07T19:35:49.839Z,99740.17
2023-04-07T19:38:16.770Z,99738.72
2023-04-07T19:40:43.597Z,99738.05
2023-04-07T19:43:13.732Z,99740.66
2023-04-07T19:45:40.590Z,99742.60
2023-04-07T19:48:08.159Z,99743.46
2023-04-07T19:50:40.914Z,99741.35
2023-04-07T19:53:07.651Z,99743.10
2023-04-07T19:55:35.427Z,99738.16
2023-04-07T19:58:02.345Z,99737.33
2023-04-07T20:00:34.456Z,99734.48
2023-04-07T20:03:11.122Z,99737.41
2023-04-07T20:05:38.336Z,99739.63
2023-04-07T20:08:05.859Z,99741.34
2023-04-07T20:10:32.842Z,99742.23
2023-04-07T20:13:04.596Z,99743.96
2023-04-07T20:15:33.216Z,99742.43
2023-04-07T20:18:00.374Z,99744.35
2023-04-07T20:20:27.311Z,99746.93
2023-04-07T20:22:54.457Z,99746.52
2023-04-07T20:25:21.822Z,99748.84
2023-04-07T20:27:49.551Z,99748.59
2023-04-07T20:30:16.705Z,99749.18
2023-04-07T20:32:45.558Z,99747.80
2023-04-07T20:35:13.996Z,99748.70
2023-04-07T20:37:41.651Z,99746.05
2023-04-07T20:40:11.766Z,99745.48
2023-04-07T20:42:39.295Z,99741.97
2023-04-07T20:45:07.266Z,99743.71
2023-04-07T20:47:36.527Z,99745.96
2023-04-07T20:50:05.184Z,99744.66
2023-04-07T20:52:39.566Z,99747.97
2023-04-07T20:55:07.441Z,99743.95
2023-04-07T20:57:34.286Z,99742.52
2023-04-07T21:00:03.063Z,99743.33
2023-04-07T21:02:31.563Z,99738.59
2023-04-07T21:04:58.510Z,99738.12
2023-04-07T21:07:25.632Z,99734.18
2023-04-07T21:09:52.785Z,99734.98
2023-04-07T21:12:19.637Z,99739.15
2023-04-07T21:14:48.620Z,99738.79
2023-04-07T21:17:15.565Z,99737.69
2023-04-07T21:19:42.819Z,99733.35
2023-04-07T21:22:12.748Z,99736.56
2023-04-07T21:24:40.292Z,99737.38
2023-04-07T21:27:07.127Z,99738.13
2023-04-07T21:29:34.216Z,99735.46
2023-04-07T21:32:01.183Z,99739.72
2023-04-07T21:34:27.856Z,99741.21
2023-04-07T21:36:54.689Z,99739.41
2023-04-07T21:39:21.609Z,99741.80
2023-04-07T21:41:48.424Z,99742.63
2023-04-07T21:44:19.450Z,99742.09
2023-04-07T21:46:47.276Z,99739.16
2023-04-07T21:49:15.054Z,99735.85
2023-04-07T21:51:42.285Z,99734.07
2023-04-07T21:54:09.556Z,99732.40
2023-04-07T21:56:36.394Z,99733.96
2023-04-07T21:59:03.763Z,99727.95
2023-04-07T22:01:30.708Z,99726.28
2023-04-07T22:03:57.806Z,99727.76
2023-04-07T22:06:26.327Z,99722.34
2023-04-07T22:09:01.169Z,99722.08
2023-04-07T22:11:29.555Z,99723.95
2023-04-07T22:13:56.481Z,99724.50
2023-04-07T22:16:23.382Z,99729.54
2023-04-07T22:18:50.564Z,99726.70
2023-04-07T22:21:18.776Z,99727.02
2023-04-07T22:23:45.799Z,99727.45
2023-04-07T22:26:13.105Z,99726.85
2023-04-07T22:28:40.805Z,99724.43
2023-04-07T22:31:07.605Z,99726.32
2023-04-07T22:33:37.371Z,99724.19
2023-04-07T22:36:04.208Z,99721.10
2023-04-07T22:38:35.066Z,99716.32
2023-04-07T22:41:01.979Z,99712.87
2023-04-07T22:43:28.922Z,99716.88
2023-04-07T22:45:55.764Z,99712.27
2023-04-07T22:48:22.607Z,99717.02
2023-04-07T22:50:49.800Z,99712.48
2023-04-07T22:53:16.801Z,99713.91
2023-04-07T22:55:43.647Z,99716.48
2023-04-07T22:58:10.489Z,99715.43
2023-04-07T23:00:37.471Z,99712.91
2023-04-07T23:03:07.295Z,99718.27
2023-04-07T23:05:34.421Z,99713.07
2023-04-07T23:08:01.231Z,99713.64
2023-04-07T23:10:31.399Z,99711.88
2023-04-07T23:13:00.044Z,99705.11
2023-04-07T23:15:26.708Z,99703.82
2023-04-07T23:17:56.862Z,99700.79
2023-04-07T23:20:23.637Z,99699.75
2023-04-07T23:22:50.431Z,99698.88
2023-04-07T23:25:17.522Z,99697.67
2023-04-07T23:27:44.399Z,99695.80
2023-04-07T23:30:12.373Z,99695.15
2023-04-07T23:32:40.327Z,99695.98
2023-04-07T23:35:07.863Z,99695.98
2023-04-07T23:37:35.216Z,99696.95
2023-04-07T23:40:02.070Z,99691.13
2023-04-07T23:42:29.102Z,99690.63
2023-04-07T23:44:55.979Z,99683.27
2023-04-07T23:47:23.331Z,99683.73
2023-04-07T23:49:50.357Z,99687.52
2023-04-07T23:52:20.873Z,99687.02
2023-04-07T23:54:48.006Z,99692.17
2023-04-07T23:57:15.488Z,99687.84
2023-04-07T23:59:42.424Z,99680.35
